Time;durP1;ratioP1;P1;durP2;ratioP2;P2;SDS_P1;SDS_P2;PMS_P1;PMS_P2;Temp;Humidity;BMP_temperature;BMP_pressure;BME280_temperature;BME280_humidity;BME280_pressure;Samples;Min_cycle;Max_cycle;Signal;HPM_P1;HPM_P2
2021/04/05 00:01:00;;;;;;;12.70;7.90;;;;;;;-0.24;62.22;98897.58;471620;1168;114509;-68
2021/04/05 00:11:04;;;;;;;11.03;7.10;;;;;;;-0.38;62.39;98877.34;471181;1168;114474;-69
2021/04/05 00:21:12;;;;;;;12.87;7.47;;;;;;;-0.41;62.61;98875.70;471375;1169;114606;-70
2021/04/05 00:31:16;;;;;;;12.40;7.55;;;;;;;-0.49;62.81;98851.89;471502;1170;115756;-70
2021/04/05 00:41:20;;;;;;;8.97;6.97;;;;;;;-0.58;63.05;98815.17;463025;1168;10001954;-70
2021/04/05 00:51:26;;;;;;;11.63;7.33;;;;;;;-0.55;63.56;98791.03;473372;1170;114700;-69
2021/04/05 01:01:32;;;;;;;12.90;6.70;;;;;;;-0.54;63.37;98784.98;471372;1171;114637;-70
2021/04/05 01:11:36;;;;;;;16.45;9.20;;;;;;;-0.52;63.84;98759.98;471313;1170;114305;-70
2021/04/05 01:21:47;;;;;;;10.67;7.33;;;;;;;-0.55;63.94;98742.03;470969;1170;114031;-70
2021/04/05 01:31:51;;;;;;;15.27;7.73;;;;;;;-0.65;63.93;98728.57;471344;1170;114401;-70
2021/04/05 01:41:55;;;;;;;14.63;7.17;;;;;;;-0.73;64.09;98710.77;471644;1169;114025;-69
2021/04/05 01:51:59;;;;;;;10.77;6.83;;;;;;;-0.85;64.24;98688.83;471090;1169;114093;-70
2021/04/05 02:02:03;;;;;;;12.60;7.90;;;;;;;-0.88;64.81;98677.76;471036;1168;114058;-69
2021/04/05 02:12:09;;;;;;;10.75;7.20;;;;;;;-0.91;65.20;98663.23;471264;1169;114423;-69
2021/04/05 02:22:13;;;;;;;12.67;7.20;;;;;;;-0.95;65.57;98648.77;471140;1171;114570;-70
2021/04/05 02:32:17;;;;;;;11.73;6.60;;;;;;;-1.02;65.59;98616.34;471156;1169;114557;-68
2021/04/05 02:42:21;;;;;;;11.80;8.70;;;;;;;-1.02;65.71;98606.03;471084;1170;115204;-69
2021/04/05 02:52:25;;;;;;;10.70;8.15;;;;;;;-1.04;66.07;98577.77;470983;1169;113942;-70
2021/04/05 03:02:29;;;;;;;13.77;8.33;;;;;;;-1.10;66.32;98557.33;471163;1169;114315;-70
2021/04/05 03:12:34;;;;;;;12.63;8.60;;;;;;;-1.15;66.19;98528.31;471569;1169;114320;-71
2021/04/05 03:22:40;;;;;;;10.23;7.90;;;;;;;-1.21;66.39;98506.17;471415;1170;114221;-70
2021/04/05 03:32:47;;;;;;;11.15;9.10;;;;;;;-1.18;66.47;98488.03;471344;1171;114328;-71
2021/04/05 03:42:56;;;;;;;11.60;7.47;;;;;;;-1.12;66.40;98463.80;471757;1168;114539;-70
2021/04/05 03:53:13;;;;;;;16.17;9.60;;;;;;;-1.05;66.30;98448.96;471404;1169;114164;-71
2021/04/05 04:03:22;;;;;;;14.93;9.30;;;;;;;-1.05;66.24;98426.59;471692;1169;114598;-70
2021/04/05 04:13:28;;;;;;;12.50;8.27;;;;;;;-1.04;66.05;98397.39;471526;1169;115517;-69
2021/04/05 04:23:33;;;;;;;18.35;9.15;;;;;;;-0.87;65.88;98365.00;471436;1170;114304;-70
2021/04/05 04:33:37;;;;;;;13.63;9.10;;;;;;;-0.57;65.47;98346.70;471312;1169;114710;-71
2021/04/05 04:43:40;;;;;;;15.15;9.75;;;;;;;-0.19;65.38;98335.75;471532;1170;114409;-71
2021/04/05 04:53:44;;;;;;;13.97;9.60;;;;;;;0.37;64.67;98323.14;471274;1170;114499;-70
2021/04/05 05:03:53;;;;;;;16.10;9.73;;;;;;;1.04;63.60;98299.55;471317;1170;115008;-70
2021/04/05 05:13:57;;;;;;;9.85;7.50;;;;;;;2.16;62.17;98264.03;471739;1170;114094;-71
2021/04/05 05:24:05;;;;;;;10.57;6.80;;;;;;;6.68;58.13;98245.91;472056;1169;114149;-70
2021/04/05 05:34:10;;;;;;;9.07;7.40;;;;;;;9.94;54.31;98223.09;471875;1170;114745;-68
2021/04/05 05:44:24;;;;;;;9.93;6.60;;;;;;;14.58;47.90;98197.97;471896;1169;114163;-70
2021/04/05 05:54:39;;;;;;;9.17;6.63;;;;;;;14.94;42.38;98190.86;471517;1169;114494;-70
2021/04/05 06:05:06;;;;;;;7.63;5.70;;;;;;;15.48;40.67;98181.70;471881;1169;114375;-71
2021/04/05 06:15:18;;;;;;;7.03;5.93;;;;;;;17.58;37.35;98153.30;471660;1169;114008;-70
2021/04/05 06:25:30;;;;;;;7.65;6.65;;;;;;;20.81;34.29;98129.91;471191;1169;114577;-71
2021/04/05 06:36:01;;;;;;;6.00;5.40;;;;;;;21.68;32.07;98117.71;471557;1169;114042;-71
2021/04/05 06:46:21;;;;;;;6.40;5.00;;;;;;;23.78;29.77;98081.66;471372;1169;113954;-72
2021/04/05 06:56:33;;;;;;;5.83;5.33;;;;;;;25.33;26.61;98078.86;472304;1169;114421;-72
2021/04/05 07:06:49;;;;;;;6.60;5.95;;;;;;;26.85;25.33;98061.09;471537;1168;114850;-71
2021/04/05 07:17:09;;;;;;;5.87;4.37;;;;;;;27.63;23.41;98021.11;471561;1170;114587;-71
2021/04/05 07:27:18;;;;;;;5.03;4.60;;;;;;;28.59;21.92;97992.00;471617;1170;114066;-71
2021/04/05 07:37:31;;;;;;;6.40;4.20;;;;;;;27.07;21.00;97970.70;472017;1169;114502;-73
2021/04/05 07:47:43;;;;;;;5.80;5.30;;;;;;;27.09;21.49;97979.34;471379;1169;114455;-72
2021/04/05 07:57:59;;;;;;;7.40;5.40;;;;;;;29.02;19.95;97961.59;471578;1168;114523;-71
2021/04/05 08:08:18;;;;;;;5.47;4.97;;;;;;;28.65;20.10;97914.57;471851;1170;114394;-72
2021/04/05 08:18:30;;;;;;;6.37;5.63;;;;;;;24.89;20.33;97889.39;471477;1169;114394;-72
2021/04/05 08:28:43;;;;;;;6.50;5.05;;;;;;;24.41;20.93;97863.52;471332;1169;114231;-73
2021/04/05 08:38:52;;;;;;;7.40;4.60;;;;;;;24.82;20.52;97832.31;471244;1169;114467;-72
2021/04/05 08:49:01;;;;;;;7.20;4.30;;;;;;;20.51;22.58;97814.79;471579;1168;115208;-71
2021/04/05 08:59:11;;;;;;;9.40;5.27;;;;;;;17.09;25.40;97814.06;472007;1169;114162;-72
2021/04/05 09:09:17;;;;;;;8.93;4.93;;;;;;;15.69;27.63;97786.97;471007;1169;114979;-71
2021/04/05 09:19:50;;;;;;;7.53;4.97;;;;;;;15.01;29.07;97782.22;471324;1170;114683;-71
2021/04/05 09:30:27;;;;;;;7.30;5.10;;;;;;;14.41;30.21;97765.86;471172;1170;114027;-71
2021/04/05 09:41:04;;;;;;;9.88;5.45;;;;;;;14.16;30.69;97763.25;471298;1169;114410;-72
2021/04/05 09:51:24;;;;;;;6.50;4.50;;;;;;;14.22;30.52;97724.81;471528;1170;114614;-71
2021/04/05 10:01:31;;;;;;;7.43;4.53;;;;;;;14.07;30.63;97698.27;471904;1169;116672;-66
2021/04/05 10:11:39;;;;;;;7.80;4.67;;;;;;;14.11;31.13;97686.38;447485;1170;20001723;-65
2021/04/05 10:21:50;;;;;;;6.83;5.50;;;;;;;13.77;31.54;97669.78;471062;1168;114495;-65
2021/04/05 10:31:55;;;;;;;7.57;5.80;;;;;;;13.93;31.72;97658.39;471110;1168;114379;-66
2021/04/05 10:42:06;;;;;;;8.10;5.40;;;;;;;13.62;31.87;97659.07;470473;1170;114341;-64
2021/04/05 10:52:13;;;;;;;8.30;5.05;;;;;;;13.68;32.83;97658.42;470019;1168;114321;-63
2021/04/05 11:02:34;;;;;;;8.40;5.60;;;;;;;13.72;33.19;97629.88;473413;1169;114638;-67
2021/04/05 11:12:41;;;;;;;8.00;5.10;;;;;;;13.76;33.35;97604.00;471382;1169;113993;-67
2021/04/05 11:22:46;;;;;;;6.83;4.60;;;;;;;13.65;33.75;97578.81;470987;1169;114035;-67
2021/04/05 11:32:51;;;;;;;7.95;4.50;;;;;;;13.58;33.68;97583.94;471545;1171;114250;-66
2021/04/05 11:42:58;;;;;;;10.20;5.87;;;;;;;13.62;34.21;97560.66;471233;1169;114438;-65
2021/04/05 11:53:08;;;;;;;10.05;5.60;;;;;;;13.41;34.88;97547.00;471039;1169;114594;-65
2021/04/05 12:03:22;;;;;;;7.03;5.47;;;;;;;13.47;34.98;97507.83;455522;1169;20003277;-64
2021/04/05 12:13:34;;;;;;;9.60;5.57;;;;;;;13.09;35.71;97497.80;470878;1170;114468;-66
2021/04/05 12:23:40;;;;;;;7.30;5.10;;;;;;;13.06;36.21;97498.94;471181;1169;114113;-65
2021/04/05 12:33:44;;;;;;;10.17;4.80;;;;;;;12.60;36.24;97496.81;471420;1169;114335;-66
2021/04/05 12:43:52;;;;;;;9.37;5.67;;;;;;;12.40;36.84;97469.94;470826;1170;116262;-65
2021/04/05 12:54:02;;;;;;;9.37;5.40;;;;;;;12.49;37.09;97468.97;471085;1169;115526;-66
2021/04/05 13:04:09;;;;;;;11.33;5.73;;;;;;;12.09;37.25;97460.03;470989;1169;114389;-65
2021/04/05 13:14:18;;;;;;;8.90;5.80;;;;;;;11.83;37.57;97450.37;471129;1170;114536;-65
2021/04/05 13:24:25;;;;;;;9.00;5.73;;;;;;;11.80;37.71;97446.27;471611;1170;114710;-64
2021/04/05 13:34:32;;;;;;;9.13;4.83;;;;;;;11.74;38.06;97420.61;471065;1170;114428;-65
2021/04/05 13:44:39;;;;;;;7.05;4.65;;;;;;;11.68;37.48;97421.25;471178;1169;114788;-65
2021/04/05 13:54:44;;;;;;;8.40;4.67;;;;;;;11.55;36.48;97396.24;471140;1168;114330;-66
2021/04/05 14:04:48;;;;;;;9.90;5.70;;;;;;;11.23;36.62;97396.91;471218;1169;114338;-65
2021/04/05 14:14:51;;;;;;;10.60;5.15;;;;;;;11.12;36.84;97383.06;471374;1169;114235;-66
2021/04/05 14:24:55;;;;;;;19.17;7.23;;;;;;;10.95;37.62;97383.96;470890;1171;114682;-65
2021/04/05 14:35:04;;;;;;;13.07;5.33;;;;;;;10.92;38.66;97380.67;471091;1168;114876;-64
2021/04/05 14:45:12;;;;;;;11.13;5.00;;;;;;;10.37;41.13;97416.65;471480;1170;114571;-66
2021/04/05 14:55:23;;;;;;;9.80;5.95;;;;;;;9.27;48.48;97465.53;471341;1168;114967;-65
2021/04/05 15:05:39;;;;;;;11.87;8.30;;;;;;;8.09;53.15;97487.33;471779;1169;114022;-66
2021/04/05 15:15:45;;;;;;;6.93;5.70;;;;;;;7.24;58.51;97501.43;471590;1170;114139;-67
2021/04/05 15:25:49;;;;;;;6.90;4.93;;;;;;;6.39;59.30;97532.63;471247;1169;113618;-67
2021/04/05 15:35:54;;;;;;;4.00;2.25;;;;;;;5.38;62.36;97558.58;471222;1170;114255;-66
2021/04/05 15:46:03;;;;;;;4.27;2.60;;;;;;;5.02;63.05;97569.03;471383;1168;114068;-67
2021/04/05 15:56:11;;;;;;;3.50;3.20;;;;;;;4.75;63.27;97587.48;471427;1171;114062;-66
2021/04/05 16:06:25;;;;;;;3.00;2.75;;;;;;;4.67;64.02;97592.39;471236;1170;115388;-66
2021/04/05 16:16:32;;;;;;;1.37;0.80;;;;;;;3.71;65.35;97608.49;471741;1169;114010;-65
2021/04/05 16:26:40;;;;;;;1.37;0.73;;;;;;;2.69;67.05;97633.27;471322;1170;113598;-66
2021/04/05 16:36:52;;;;;;;2.40;1.55;;;;;;;2.22;67.49;97651.67;471248;1169;114036;-73
2021/04/05 16:47:01;;;;;;;1.87;1.23;;;;;;;1.92;68.88;97687.09;471153;1168;114030;-67
2021/04/05 16:57:10;;;;;;;3.15;1.50;;;;;;;1.58;68.86;97683.88;471543;1168;113626;-67
2021/04/05 17:07:26;;;;;;;3.85;1.60;;;;;;;1.32;69.05;97713.81;471007;1168;113970;-68
2021/04/05 17:17:36;;;;;;;2.48;1.75;;;;;;;1.19;71.05;97722.27;463437;1169;10001526;-68
2021/04/05 17:27:49;;;;;;;3.83;2.63;;;;;;;1.10;70.22;97727.94;472156;1169;114163;-67
2021/04/05 17:37:59;;;;;;;2.97;2.00;;;;;;;1.25;70.40;97752.12;472245;1168;113738;-69
2021/04/05 17:48:14;;;;;;;1.00;0.87;;;;;;;0.87;70.75;97796.41;471721;1169;114435;-67
2021/04/05 17:58:33;;;;;;;1.83;0.60;;;;;;;-0.08;72.41;97816.67;471847;1170;113658;-68
2021/04/05 18:09:05;;;;;;;2.43;1.40;;;;;;;-0.32;72.58;97830.67;471342;1168;114064;-66
2021/04/05 18:19:19;;;;;;;1.70;0.70;;;;;;;-0.45;73.57;97866.54;471427;1169;114717;-67
2021/04/05 18:29:44;;;;;;;1.93;1.20;;;;;;;-0.34;73.40;97888.42;471429;1169;114058;-65
2021/04/05 18:40:05;;;;;;;3.20;2.10;;;;;;;-0.25;72.98;97882.80;471304;1169;114128;-66
2021/04/05 18:50:20;;;;;;;6.43;2.20;;;;;;;-0.18;72.82;97858.39;471322;1169;113899;-68
2021/04/05 19:00:30;;;;;;;15.70;4.43;;;;;;;-0.16;72.82;97891.88;471261;1170;114062;-67
2021/04/05 19:10:37;;;;;;;19.30;6.90;;;;;;;-0.19;72.61;97861.03;471423;1171;115048;-67
2021/04/05 19:20:44;;;;;;;3.10;1.83;;;;;;;-0.26;72.62;97873.39;471106;1170;114819;-67
2021/04/05 19:31:20;;;;;;;2.53;1.13;;;;;;;-0.35;72.76;97895.30;471130;1170;114217;-69
2021/04/05 19:41:44;;;;;;;6.40;2.60;;;;;;;-0.35;72.56;97913.36;471822;1169;114675;-68
2021/04/05 19:52:00;;;;;;;1.77;1.17;;;;;;;-0.40;72.39;97948.01;471145;1170;114456;-69
2021/04/05 20:02:25;;;;;;;2.80;1.50;;;;;;;-0.39;72.31;97931.63;478597;1169;114228;-70
2021/04/05 20:12:43;;;;;;;1.40;1.03;;;;;;;-0.30;71.99;97900.25;471425;1170;115659;-66
2021/04/05 20:22:54;;;;;;;5.13;2.60;;;;;;;-0.30;72.19;97915.73;471691;1169;114037;-68
2021/04/05 20:33:14;;;;;;;3.10;2.20;;;;;;;-0.53;72.26;97930.52;471432;1170;114007;-67
2021/04/05 20:43:23;;;;;;;3.75;1.80;;;;;;;-0.78;72.18;97953.97;471452;1169;115665;-70
2021/04/05 20:53:35;;;;;;;4.35;2.40;;;;;;;-0.84;72.64;97955.08;471476;1170;113852;-67
2021/04/05 21:03:42;;;;;;;4.83;2.50;;;;;;;-0.89;72.82;97967.34;471295;1168;114647;-67
2021/04/05 21:13:51;;;;;;;;;;;;;;;-0.79;73.03;97950.57;471514;1170;114345;-70
2021/04/05 21:23:59;;;;;;;6.60;2.67;;;;;;;-0.77;72.90;97961.64;470718;1168;100812;-63
2021/04/05 21:34:10;;;;;;;6.57;3.20;;;;;;;-0.89;73.16;97952.70;470559;1169;114260;-62
2021/04/05 21:44:18;;;;;;;5.10;2.63;;;;;;;-0.88;73.14;97956.94;471218;1170;114210;-64
2021/04/05 21:54:31;;;;;;;4.97;2.70;;;;;;;-0.98;73.20;97960.85;471598;1171;113944;-64
2021/04/05 22:04:37;;;;;;;4.80;2.37;;;;;;;-0.99;73.66;97970.30;471156;1168;113666;-64
2021/04/05 22:14:41;;;;;;;4.10;1.93;;;;;;;-0.90;74.00;97981.13;471581;1170;114266;-65
2021/04/05 22:24:45;;;;;;;4.53;2.20;;;;;;;-0.83;73.79;97985.09;471281;1169;113789;-65
2021/04/05 22:34:54;;;;;;;5.45;2.10;;;;;;;-0.72;73.76;98007.84;471653;1169;113851;-65
2021/04/05 22:45:03;;;;;;;5.23;2.30;;;;;;;-0.79;73.88;98009.85;455706;1170;20002594;-68
2021/04/05 22:55:13;;;;;;;3.83;1.80;;;;;;;-0.85;73.92;98015.26;472134;1167;114377;-67
2021/04/05 23:05:17;;;;;;;3.77;2.90;;;;;;;-0.94;73.67;98001.03;471592;1168;114659;-67
2021/04/05 23:15:31;;;;;;;2.85;1.80;;;;;;;-1.04;73.69;98010.91;463168;1169;10003652;-67
2021/04/05 23:25:41;;;;;;;4.20;2.60;;;;;;;-1.17;74.01;98013.14;471957;1168;114569;-68
2021/04/05 23:35:50;;;;;;;4.00;1.95;;;;;;;-1.20;73.88;98002.97;471498;1170;113932;-67
2021/04/05 23:45:58;;;;;;;2.30;1.73;;;;;;;-1.30;73.93;98030.00;471867;1168;113850;-68
2021/04/05 23:56:03;;;;;;;6.10;2.60;;;;;;;-1.33;74.00;98043.84;471595;1168;113960;-66
